sensor_id;sensor_type;location;lat;lon;timestamp;P1;durP1;ratioP1;P2;durP2;ratioP2
26530;SDS011;14201;43.188;24.160;2023-05-10T07:25:49;8.25;;;7.45;;
26530;SDS011;14201;43.188;24.160;2023-05-10T07:28:18;10.18;;;7.90;;
26530;SDS011;14201;43.188;24.160;2023-05-10T07:33:13;10.70;;;8.43;;
26530;SDS011;14201;43.188;24.160;2023-05-10T07:35:40;18.90;;;12.90;;
26530;SDS011;14201;43.188;24.160;2023-05-10T08:31:30;7.88;;;4.30;;
26530;SDS011;14201;43.188;24.160;2023-05-10T08:33:55;6.50;;;3.95;;
26530;SDS011;14201;43.188;24.160;2023-05-10T08:36:21;5.55;;;3.70;;
26530;SDS011;14201;43.188;24.160;2023-05-10T08:38:51;6.72;;;3.45;;
26530;SDS011;14201;43.188;24.160;2023-05-10T08:41:19;7.25;;;4.18;;
26530;SDS011;14201;43.188;24.160;2023-05-10T08:43:46;6.55;;;4.20;;
26530;SDS011;14201;43.188;24.160;2023-05-10T08:46:15;9.85;;;3.95;;
26530;SDS011;14201;43.188;24.160;2023-05-10T08:48:43;6.70;;;3.65;;
26530;SDS011;14201;43.188;24.160;2023-05-10T08:51:12;6.25;;;3.70;;
26530;SDS011;14201;43.188;24.160;2023-05-10T08:53:40;9.57;;;3.50;;
26530;SDS011;14201;43.188;24.160;2023-05-10T08:56:06;4.43;;;3.40;;
26530;SDS011;14201;43.188;24.160;2023-05-10T08:58:32;6.57;;;3.40;;
26530;SDS011;14201;43.188;24.160;2023-05-10T09:00:58;5.38;;;3.00;;
26530;SDS011;14201;43.188;24.160;2023-05-10T09:03:24;5.38;;;3.65;;
26530;SDS011;14201;43.188;24.160;2023-05-10T09:05:50;4.07;;;3.58;;
26530;SDS011;14201;43.188;24.160;2023-05-10T09:08:16;7.20;;;3.55;;
26530;SDS011;14201;43.188;24.160;2023-05-10T09:10:43;8.88;;;3.50;;
26530;SDS011;14201;43.188;24.160;2023-05-10T09:13:10;5.63;;;3.10;;
26530;SDS011;14201;43.188;24.160;2023-05-10T09:15:37;3.90;;;3.47;;
26530;SDS011;14201;43.188;24.160;2023-05-10T09:18:03;6.47;;;3.80;;
26530;SDS011;14201;43.188;24.160;2023-05-10T09:20:29;6.75;;;3.38;;
26530;SDS011;14201;43.188;24.160;2023-05-10T09:22:54;5.68;;;3.30;;
26530;SDS011;14201;43.188;24.160;2023-05-10T09:25:20;5.05;;;2.80;;
26530;SDS011;14201;43.188;24.160;2023-05-10T09:27:47;4.32;;;2.90;;
26530;SDS011;14201;43.188;24.160;2023-05-10T09:30:16;2.92;;;2.67;;
26530;SDS011;14201;43.188;24.160;2023-05-10T09:32:48;7.13;;;2.55;;
26530;SDS011;14201;43.188;24.160;2023-05-10T09:35:15;4.97;;;2.60;;
26530;SDS011;14201;43.188;24.160;2023-05-10T09:37:43;7.05;;;2.63;;
26530;SDS011;14201;43.188;24.160;2023-05-10T09:40:11;4.07;;;2.45;;
26530;SDS011;14201;43.188;24.160;2023-05-10T09:42:38;6.03;;;2.50;;
26530;SDS011;14201;43.188;24.160;2023-05-10T09:45:04;4.72;;;2.58;;
26530;SDS011;14201;43.188;24.160;2023-05-10T09:47:35;6.90;;;3.00;;
26530;SDS011;14201;43.188;24.160;2023-05-10T09:50:02;5.20;;;2.70;;
26530;SDS011;14201;43.188;24.160;2023-05-10T09:52:45;4.28;;;2.50;;
26530;SDS011;14201;43.188;24.160;2023-05-10T09:55:40;5.00;;;2.60;;
26530;SDS011;14201;43.188;24.160;2023-05-10T09:58:11;4.80;;;2.38;;
26530;SDS011;14201;43.188;24.160;2023-05-10T10:00:40;3.47;;;2.38;;
26530;SDS011;14201;43.188;24.160;2023-05-10T13:20:33;4.82;;;2.10;;
26530;SDS011;14201;43.188;24.160;2023-05-10T13:22:59;4.85;;;2.03;;
26530;SDS011;14201;43.188;24.160;2023-05-10T13:25:24;2.03;;;1.40;;
26530;SDS011;14201;43.188;24.160;2023-05-10T13:27:50;4.18;;;1.60;;
26530;SDS011;14201;43.188;24.160;2023-05-10T13:30:16;2.50;;;1.45;;
